Sacramento, California
Traffic Map
Current Weather Conditions
Sacramento, California
Clear
Clear
64°
Feels Like: 64°
Wind Chill: 64° Ceiling: Unl
Heat Index: 64° Visibility: 10mi
Dew Point: 58° Wind: 3mph
Humidity: 80% Direction: ° ()
Pressure: 29.93in Gusts: 0mph
Raw Report DataKSAC 311253Z AUTO VRB03KT 10SM CLR 18/14 A2993 RMK AO2 SLP136 T01780144
Traffic Incident Summary
Active as of:
Severity:
Category:
InformationThere was an issue retrieving the traffic information for this location. Please try a different location or try again shortly.
Advertisements
Track Severe Weather on mobile